createdAt,value
2022-08-03T00:00:44.339Z,107.65
2022-08-03T00:03:13.682Z,85.15
2022-08-03T00:06:04.161Z,143.57
2022-08-03T00:08:32.463Z,116.93
2022-08-03T00:11:08.661Z,68.70
2022-08-03T00:13:38.283Z,89.90
2022-08-03T00:16:07.938Z,90.07
2022-08-03T00:18:37.192Z,87.20
2022-08-03T00:21:06.949Z,129.43
2022-08-03T00:23:51.602Z,76.47
2022-08-03T00:26:23.563Z,62.13
2022-08-03T00:28:53.083Z,77.53
2022-08-03T00:31:39.850Z,97.55
2022-08-03T00:34:12.437Z,67.70
2022-08-03T00:36:42.188Z,99.45
2022-08-03T00:39:11.742Z,75.30
2022-08-03T00:41:42.341Z,106.47
2022-08-03T00:44:11.667Z,73.50
2022-08-03T00:46:40.928Z,86.78
2022-08-03T00:49:10.369Z,74.50
2022-08-03T00:51:39.931Z,70.05
2022-08-03T00:54:09.228Z,86.38
2022-08-03T00:56:39.141Z,129.27
2022-08-03T00:59:31.145Z,130.32
2022-08-03T01:02:00.358Z,119.85
2022-08-03T01:04:29.618Z,97.05
2022-08-03T01:07:11.153Z,156.65
2022-08-03T01:10:01.980Z,144.73
2022-08-03T01:12:39.863Z,94.18
2022-08-03T01:15:19.610Z,75.80
2022-08-03T01:17:57.983Z,56.08
2022-08-03T01:20:35.021Z,74.18
2022-08-03T01:23:34.645Z,129.02
2022-08-03T01:27:03.677Z,74.45
2022-08-03T01:29:53.279Z,51.80
2022-08-03T01:33:02.896Z,69.68
2022-08-03T01:35:23.221Z,61.10
2022-08-03T01:37:59.171Z,136.63
2022-08-03T01:40:30.997Z,81.10
2022-08-03T01:43:03.502Z,59.80
2022-08-03T01:48:05.215Z,48.35
2022-08-03T01:50:35.658Z,50.05
2022-08-03T01:53:05.658Z,87.82
2022-08-03T01:55:36.388Z,75.70
2022-08-03T01:58:08.058Z,69.10
2022-08-03T02:00:40.180Z,94.83
2022-08-03T02:03:11.649Z,98.43
2022-08-03T02:05:42.333Z,89.28
2022-08-03T02:08:15.355Z,109.80
2022-08-03T02:10:46.339Z,60.63
2022-08-03T02:13:18.519Z,148.40
2022-08-03T02:15:51.814Z,68.38
2022-08-03T02:18:22.883Z,75.20
2022-08-03T02:20:53.202Z,58.88
2022-08-03T02:23:22.502Z,66.75
2022-08-03T02:25:59.960Z,67.60
2022-08-03T02:28:36.736Z,74.05
2022-08-03T02:31:14.360Z,81.18
2022-08-03T02:33:50.225Z,56.92
2022-08-03T02:36:24.901Z,60.15
2022-08-03T02:38:58.183Z,84.22
2022-08-03T02:41:34.697Z,63.15
2022-08-03T02:44:09.727Z,66.85
2022-08-03T02:46:46.908Z,210.93
2022-08-03T02:49:40.424Z,210.43
2022-08-03T02:52:15.866Z,122.07
2022-08-03T02:54:47.548Z,75.07
2022-08-03T02:57:19.477Z,240.43
2022-08-03T02:59:49.618Z,76.72
2022-08-03T03:02:21.214Z,81.68
2022-08-03T03:05:50.792Z,63.22
2022-08-03T03:07:51.392Z,59.08
2022-08-03T03:10:23.743Z,240.13
2022-08-03T03:12:57.438Z,155.25
2022-08-03T03:15:29.695Z,64.47
2022-08-03T03:18:02.455Z,109.22
2022-08-03T03:23:03.358Z,74.60
2022-08-03T03:25:34.483Z,63.95
2022-08-03T03:28:06.294Z,55.78
2022-08-03T03:30:36.321Z,52.55
2022-08-03T03:33:07.772Z,53.03
2022-08-03T03:35:39.109Z,55.42
2022-08-03T03:38:08.778Z,70.00
2022-08-03T03:40:38.370Z,52.70
2022-08-03T03:43:10.023Z,83.85
2022-08-03T03:45:39.678Z,56.58
2022-08-03T03:48:10.897Z,67.68
2022-08-03T03:50:41.265Z,56.97
2022-08-03T03:53:14.395Z,66.45
2022-08-03T03:55:58.914Z,63.08
2022-08-03T03:58:33.724Z,74.28
2022-08-03T04:01:03.521Z,87.82
2022-08-03T04:03:34.300Z,65.68
2022-08-03T04:06:21.134Z,151.82
2022-08-03T04:09:07.601Z,83.70
2022-08-03T04:11:43.098Z,53.38
2022-08-03T04:14:19.058Z,53.22
2022-08-03T04:16:53.042Z,73.68
2022-08-03T04:19:32.152Z,62.28
2022-08-03T04:22:07.975Z,99.45
2022-08-03T04:24:43.025Z,67.97
2022-08-03T04:27:17.997Z,59.80
2022-08-03T04:29:50.805Z,118.32
2022-08-03T04:32:21.488Z,54.83
2022-08-03T04:34:52.728Z,61.17
2022-08-03T04:37:33.568Z,49.25
2022-08-03T04:40:08.824Z,75.00
2022-08-03T04:42:40.275Z,72.45
2022-08-03T04:45:14.646Z,84.65
2022-08-03T04:47:44.866Z,58.10
2022-08-03T04:50:21.188Z,63.55
2022-08-03T04:53:08.100Z,52.50
2022-08-03T04:55:37.903Z,69.57
2022-08-03T04:58:07.675Z,53.75
2022-08-03T05:00:39.966Z,52.10
2022-08-03T05:03:20.144Z,64.97
2022-08-03T05:06:09.822Z,65.72
2022-08-03T05:08:46.190Z,63.17
2022-08-03T05:11:18.711Z,72.40
2022-08-03T05:13:48.414Z,48.10
2022-08-03T05:16:19.246Z,79.35
2022-08-03T05:18:48.512Z,65.40
2022-08-03T05:21:19.633Z,57.97
2022-08-03T05:23:49.013Z,120.15
2022-08-03T05:26:18.440Z,65.35
2022-08-03T05:28:50.795Z,74.75
2022-08-03T05:31:21.063Z,46.83
2022-08-03T05:33:50.560Z,54.38
2022-08-03T05:36:21.526Z,60.03
2022-08-03T05:38:50.907Z,55.80
2022-08-03T05:41:21.961Z,65.38
2022-08-03T05:43:54.201Z,134.85
2022-08-03T05:46:24.275Z,60.45
2022-08-03T05:48:53.801Z,66.32
2022-08-03T05:51:24.664Z,121.07
2022-08-03T05:53:56.765Z,126.90
2022-08-03T05:56:26.665Z,59.10
2022-08-03T05:58:56.221Z,49.40
2022-08-03T06:01:27.959Z,65.25
2022-08-03T06:03:57.446Z,99.55
2022-08-03T06:06:32.291Z,97.88
2022-08-03T06:09:01.834Z,71.18
2022-08-03T06:11:31.009Z,55.63
2022-08-03T06:14:01.153Z,48.13
2022-08-03T06:16:30.470Z,52.30
2022-08-03T06:18:59.649Z,68.35
2022-08-03T06:21:30.630Z,91.43
2022-08-03T06:24:00.368Z,49.25
2022-08-03T06:26:33.815Z,66.70
2022-08-03T06:29:03.877Z,53.50
2022-08-03T06:31:33.823Z,59.15
2022-08-03T06:34:34.506Z,73.47
2022-08-03T06:37:01.745Z,63.53
2022-08-03T06:39:31.709Z,55.30
2022-08-03T06:42:01.049Z,60.70
2022-08-03T06:44:32.126Z,99.05
2022-08-03T06:47:09.139Z,128.55
2022-08-03T06:49:42.322Z,153.50
2022-08-03T06:52:13.305Z,62.10
2022-08-03T06:55:02.936Z,58.00
2022-08-03T06:57:32.239Z,143.20
2022-08-03T07:00:07.972Z,67.30
2022-08-03T07:02:41.139Z,175.40
2022-08-03T07:05:14.084Z,60.67
2022-08-03T07:07:45.057Z,55.08
2022-08-03T07:10:14.559Z,86.53
2022-08-03T07:12:55.786Z,99.30
2022-08-03T07:15:53.847Z,64.93
2022-08-03T07:18:16.308Z,65.88
2022-08-03T07:20:45.729Z,95.47
2022-08-03T07:23:19.311Z,54.53
2022-08-03T07:25:48.809Z,50.22
2022-08-03T07:28:18.194Z,59.42
2022-08-03T07:30:47.553Z,72.97
2022-08-03T07:33:17.063Z,90.43
2022-08-03T07:35:46.798Z,69.93
2022-08-03T07:38:20.896Z,71.05
2022-08-03T07:40:50.748Z,110.47
2022-08-03T07:43:19.954Z,74.00
2022-08-03T07:45:49.213Z,77.32
2022-08-03T07:48:18.415Z,135.48
2022-08-03T07:50:47.939Z,98.00
2022-08-03T07:53:18.495Z,76.38
2022-08-03T07:55:47.868Z,100.38
2022-08-03T07:58:20.639Z,94.03
2022-08-03T08:00:54.071Z,115.05
2022-08-03T08:03:23.339Z,94.20
2022-08-03T08:05:53.697Z,132.32
2022-08-03T08:08:24.378Z,110.78
2022-08-03T08:10:57.894Z,86.95
2022-08-03T08:13:28.053Z,99.13
2022-08-03T08:15:57.333Z,86.63
2022-08-03T08:18:29.601Z,92.97
2022-08-03T08:21:01.638Z,84.70
2022-08-03T08:23:42.149Z,90.88
2022-08-03T08:26:14.022Z,75.70
2022-08-03T08:28:43.214Z,92.80
2022-08-03T08:31:12.413Z,73.90
2022-08-03T08:34:03.272Z,91.95
2022-08-03T08:36:31.240Z,88.47
2022-08-03T08:39:02.217Z,113.95
2022-08-03T08:41:33.945Z,97.70
2022-08-03T08:44:03.641Z,119.75
2022-08-03T08:46:35.024Z,95.93
2022-08-03T08:49:04.899Z,88.47
2022-08-03T08:51:59.296Z,101.88
2022-08-03T08:54:29.165Z,72.47
2022-08-03T08:57:09.105Z,102.05
2022-08-03T08:59:47.922Z,86.88
2022-08-03T09:02:18.632Z,84.57
2022-08-03T09:04:48.950Z,100.57
2022-08-03T09:07:20.364Z,87.88
2022-08-03T09:10:10.874Z,109.85
2022-08-03T09:12:43.756Z,76.07
2022-08-03T09:15:25.193Z,83.95
2022-08-03T09:17:59.295Z,85.00
2022-08-03T09:20:35.180Z,101.72
2022-08-03T09:23:26.230Z,103.63
2022-08-03T09:26:01.841Z,81.55
2022-08-03T09:29:01.558Z,87.53
2022-08-03T09:31:34.613Z,115.35
2022-08-03T09:34:06.453Z,103.70
2022-08-03T09:36:39.824Z,102.60
2022-08-03T09:39:12.187Z,93.47
2022-08-03T09:41:48.816Z,97.63
2022-08-03T09:44:25.133Z,90.13
2022-08-03T09:46:57.450Z,163.40
2022-08-03T09:49:27.126Z,90.82
2022-08-03T09:52:38.135Z,86.45
2022-08-03T09:54:51.993Z,105.95
2022-08-03T09:57:27.864Z,78.82
2022-08-03T10:00:11.207Z,79.68
2022-08-03T10:02:44.783Z,98.88
2022-08-03T10:05:19.580Z,91.20
2022-08-03T10:07:51.360Z,86.97
2022-08-03T10:10:29.906Z,99.50
2022-08-03T10:13:02.963Z,83.38
2022-08-03T10:16:23.291Z,105.65
2022-08-03T10:18:24.170Z,84.63
2022-08-03T10:21:03.309Z,106.55
2022-08-03T10:23:36.090Z,88.72
2022-08-03T10:26:08.891Z,73.93
2022-08-03T10:28:50.829Z,90.35
2022-08-03T10:31:23.669Z,95.07
2022-08-03T10:33:58.456Z,98.55
2022-08-03T10:36:33.212Z,88.97
2022-08-03T10:39:04.082Z,105.00
2022-08-03T10:41:46.633Z,106.65
2022-08-03T10:44:22.698Z,95.63
2022-08-03T10:46:53.139Z,92.25
2022-08-03T10:49:34.036Z,118.25
2022-08-03T10:52:13.409Z,82.97
2022-08-03T10:55:13.124Z,96.35
2022-08-03T10:57:58.455Z,89.68
2022-08-03T11:00:31.325Z,112.07
2022-08-03T11:05:43.526Z,98.43
2022-08-03T11:08:30.981Z,108.85
2022-08-03T11:11:20.175Z,102.80
2022-08-03T11:14:02.052Z,97.85
2022-08-03T11:16:36.275Z,107.55
2022-08-03T11:19:07.905Z,115.00
2022-08-03T11:21:59.386Z,113.60
2022-08-03T11:25:04.555Z,113.05
2022-08-03T11:27:35.387Z,121.22
2022-08-03T11:30:08.690Z,126.53
2022-08-03T11:33:01.828Z,121.38
2022-08-03T11:35:34.078Z,136.65
2022-08-03T11:38:12.743Z,126.53
2022-08-03T11:40:45.434Z,141.73
2022-08-03T11:43:49.487Z,117.15
2022-08-03T11:46:28.388Z,135.52
2022-08-03T11:49:10.717Z,118.10
2022-08-03T11:51:41.263Z,127.40
2022-08-03T11:54:11.549Z,129.65
2022-08-03T11:56:49.046Z,132.25
2022-08-03T11:59:22.201Z,121.47
2022-08-03T12:01:52.273Z,124.97
2022-08-03T12:04:23.002Z,107.72
2022-08-03T12:07:02.462Z,123.78
2022-08-03T12:09:31.692Z,108.68
2022-08-03T12:12:01.364Z,125.72
2022-08-03T12:14:48.748Z,113.05
2022-08-03T12:17:21.196Z,117.68
2022-08-03T12:19:52.546Z,134.50
2022-08-03T12:22:33.878Z,110.22
2022-08-03T12:25:03.173Z,165.45
2022-08-03T12:27:32.504Z,120.50
2022-08-03T12:30:03.274Z,112.15
2022-08-03T12:32:33.477Z,105.22
2022-08-03T12:35:06.044Z,108.68
2022-08-03T12:37:35.727Z,129.73
2022-08-03T12:40:10.624Z,131.32
2022-08-03T12:42:41.685Z,139.13
2022-08-03T12:45:21.505Z,129.95
2022-08-03T12:47:56.233Z,142.80
2022-08-03T12:50:29.102Z,162.20
2022-08-03T12:52:59.920Z,171.75
2022-08-03T12:55:56.252Z,154.57
2022-08-03T12:58:36.452Z,151.85
2022-08-03T13:01:09.710Z,149.32
2022-08-03T13:03:49.682Z,173.05
2022-08-03T13:06:23.253Z,175.75
2022-08-03T13:09:03.933Z,188.68
2022-08-03T13:11:58.256Z,158.15
2022-08-03T13:14:23.788Z,172.63
2022-08-03T13:16:53.181Z,163.00
2022-08-03T13:19:22.421Z,129.40
2022-08-03T13:22:01.333Z,127.57
2022-08-03T13:24:34.943Z,135.63
2022-08-03T13:28:01.560Z,144.75
2022-08-03T13:29:56.415Z,117.43
2022-08-03T13:32:25.916Z,131.73
2022-08-03T13:34:55.098Z,195.80
2022-08-03T13:37:26.472Z,146.95
2022-08-03T13:39:58.862Z,184.20
2022-08-03T13:42:31.568Z,183.60
2022-08-03T13:45:02.602Z,159.75
2022-08-03T13:47:31.966Z,162.65
2022-08-03T13:50:03.175Z,183.60
2022-08-03T13:55:08.284Z,188.95
2022-08-03T13:58:05.418Z,197.45
2022-08-03T14:00:29.527Z,195.60
2022-08-03T14:03:16.068Z,226.40
2022-08-03T14:05:45.871Z,186.82
2022-08-03T14:08:16.450Z,199.27
2022-08-03T14:10:46.697Z,223.90
2022-08-03T14:13:17.721Z,180.82
2022-08-03T14:15:50.902Z,227.13
2022-08-03T14:18:27.819Z,196.07
2022-08-03T14:21:06.753Z,185.13
2022-08-03T14:23:38.976Z,216.88
2022-08-03T14:26:09.385Z,202.45
2022-08-03T14:28:38.805Z,189.02
2022-08-03T14:32:10.362Z,183.82
2022-08-03T14:33:58.226Z,156.27
2022-08-03T14:36:27.801Z,165.27
2022-08-03T14:39:01.396Z,163.77
2022-08-03T14:41:31.317Z,176.25
2022-08-03T14:44:01.958Z,176.55
2022-08-03T14:46:32.633Z,171.23
2022-08-03T14:50:29.295Z,140.15
2022-08-03T14:51:53.872Z,108.03
2022-08-03T14:56:54.208Z,119.70
2022-08-03T14:59:23.365Z,139.23
2022-08-03T15:02:04.438Z,124.70
2022-08-03T15:04:36.320Z,134.20
2022-08-03T15:07:05.814Z,113.35
2022-08-03T15:09:38.102Z,117.50
2022-08-03T15:14:37.846Z,77.97
2022-08-03T15:17:08.143Z,113.97
2022-08-03T15:20:03.859Z,91.25
2022-08-03T15:22:34.771Z,102.47
2022-08-03T15:26:32.121Z,117.15
2022-08-03T15:28:03.320Z,99.80
2022-08-03T15:30:37.037Z,105.32
2022-08-03T15:33:06.998Z,108.78
2022-08-03T15:35:39.157Z,114.43
2022-08-03T15:38:11.750Z,107.15
2022-08-03T15:40:44.936Z,129.20
2022-08-03T15:43:14.317Z,126.00
2022-08-03T15:45:45.121Z,103.72
2022-08-03T15:48:14.486Z,96.32
2022-08-03T15:50:43.881Z,104.40
2022-08-03T15:53:18.825Z,95.05
2022-08-03T15:55:49.570Z,93.40
2022-08-03T15:59:10.002Z,124.28
2022-08-03T16:01:15.284Z,112.65
2022-08-03T16:03:50.049Z,122.57
2022-08-03T16:06:29.412Z,99.80
2022-08-03T16:09:05.585Z,116.63
2022-08-03T16:11:55.275Z,113.22
2022-08-03T16:14:34.818Z,93.10
2022-08-03T16:19:40.443Z,85.28
2022-08-03T16:22:10.475Z,99.85
2022-08-03T16:27:36.810Z,98.35
2022-08-03T16:30:03.452Z,89.60
2022-08-03T16:32:34.111Z,124.00
2022-08-03T16:35:04.042Z,89.18
2022-08-03T16:37:38.654Z,104.93
2022-08-03T16:40:17.303Z,96.78
2022-08-03T16:42:50.024Z,86.47
2022-08-03T16:45:19.443Z,100.70
2022-08-03T16:48:01.297Z,114.95
2022-08-03T16:50:35.111Z,94.65
2022-08-03T16:53:09.186Z,97.93
2022-08-03T16:55:48.522Z,84.85
2022-08-03T16:58:34.471Z,94.80
2022-08-03T17:01:21.521Z,102.20
2022-08-03T17:03:57.727Z,96.40
2022-08-03T17:06:34.447Z,94.47
2022-08-03T17:09:09.823Z,99.43
2022-08-03T17:11:46.430Z,94.90
2022-08-03T17:14:22.658Z,105.38
2022-08-03T17:16:54.759Z,97.07
2022-08-03T17:19:26.494Z,96.75
2022-08-03T17:22:04.589Z,101.55
2022-08-03T17:24:36.910Z,85.65
2022-08-03T17:28:48.572Z,115.03
2022-08-03T17:30:12.151Z,87.18
2022-08-03T17:32:52.397Z,116.05
2022-08-03T17:35:34.382Z,99.80
2022-08-03T17:38:12.125Z,91.85
2022-08-03T17:40:50.040Z,96.80
2022-08-03T17:44:13.169Z,100.40
2022-08-03T17:46:12.622Z,100.13
2022-08-03T17:48:42.799Z,108.53
2022-08-03T17:51:22.291Z,101.53
2022-08-03T17:54:18.371Z,137.68
2022-08-03T17:57:22.383Z,119.07
2022-08-03T18:00:00.145Z,112.93
2022-08-03T18:03:10.103Z,116.75
2022-08-03T18:06:10.987Z,108.25
2022-08-03T18:08:32.487Z,105.22
2022-08-03T18:11:14.332Z,108.23
2022-08-03T18:13:53.408Z,119.57
2022-08-03T18:16:35.511Z,113.40
2022-08-03T18:19:14.182Z,103.18
2022-08-03T18:22:02.782Z,116.30
2022-08-03T18:24:33.627Z,105.65
2022-08-03T18:27:03.386Z,111.45
2022-08-03T18:29:33.772Z,114.90
2022-08-03T18:32:06.813Z,110.15
2022-08-03T18:34:53.321Z,164.60
2022-08-03T18:37:26.162Z,124.55
2022-08-03T18:39:58.853Z,117.32
2022-08-03T18:42:32.261Z,113.03
2022-08-03T18:45:15.021Z,124.40
2022-08-03T18:48:05.161Z,111.82
2022-08-03T18:50:48.253Z,121.55
2022-08-03T18:54:01.884Z,111.70
2022-08-03T18:56:28.392Z,104.85
2022-08-03T18:59:05.341Z,99.55
2022-08-03T19:01:58.604Z,163.13
2022-08-03T19:04:37.250Z,107.65
2022-08-03T19:07:15.619Z,97.38
2022-08-03T19:09:54.479Z,101.85
2022-08-03T19:12:35.457Z,96.30
2022-08-03T19:15:12.925Z,87.35
2022-08-03T19:17:50.175Z,75.95
2022-08-03T19:20:25.319Z,81.05
2022-08-03T19:22:59.215Z,74.97
2022-08-03T19:25:34.858Z,130.82
2022-08-03T19:28:08.088Z,81.15
2022-08-03T19:30:40.651Z,81.13
2022-08-03T19:33:21.458Z,84.32
2022-08-03T19:35:56.971Z,76.10
2022-08-03T19:38:29.800Z,79.22
2022-08-03T19:46:31.087Z,48.83
2022-08-03T19:49:14.531Z,65.03
2022-08-03T19:52:00.998Z,75.60
2022-08-03T19:54:52.997Z,70.05
2022-08-03T19:57:27.395Z,64.13
2022-08-03T19:59:58.212Z,57.85
2022-08-03T20:02:29.890Z,77.00
2022-08-03T20:05:00.709Z,67.68
2022-08-03T20:07:32.394Z,63.90
2022-08-03T20:10:11.161Z,61.67
2022-08-03T20:12:43.592Z,65.03
2022-08-03T20:15:13.229Z,59.47
2022-08-03T20:17:57.006Z,65.85
2022-08-03T20:20:33.559Z,61.58
2022-08-03T20:23:08.541Z,66.15
2022-08-03T20:25:57.115Z,61.60
2022-08-03T20:28:34.230Z,78.35
2022-08-03T20:33:46.702Z,44.08
2022-08-03T20:36:19.753Z,53.15
2022-08-03T20:38:52.035Z,61.67
2022-08-03T20:41:23.525Z,55.65
2022-08-03T20:43:52.982Z,54.88
2022-08-03T20:46:29.063Z,67.90
2022-08-03T20:49:04.927Z,58.45
2022-08-03T20:51:50.051Z,60.90
2022-08-03T20:54:29.570Z,46.80
2022-08-03T20:57:04.384Z,56.30
2022-08-03T20:59:50.485Z,54.25
2022-08-03T21:02:29.813Z,71.35
2022-08-03T21:05:03.646Z,53.28
2022-08-03T21:08:03.991Z,77.70
2022-08-03T21:10:37.918Z,55.28
2022-08-03T21:13:18.160Z,54.85
2022-08-03T21:16:11.389Z,55.40
2022-08-03T21:18:46.870Z,51.08
2022-08-03T21:21:18.860Z,55.30
2022-08-03T21:23:52.883Z,55.83
2022-08-03T21:26:24.725Z,58.17
2022-08-03T21:28:57.784Z,59.13
2022-08-03T21:31:28.048Z,97.80
2022-08-03T21:33:59.279Z,218.13
2022-08-03T21:36:30.638Z,79.50
2022-08-03T21:39:00.899Z,69.85
2022-08-03T21:41:33.434Z,63.05
2022-08-03T21:44:05.261Z,54.58
2022-08-03T21:46:38.209Z,105.17
2022-08-03T21:49:51.773Z,54.75
2022-08-03T21:52:00.783Z,42.20
2022-08-03T21:54:44.443Z,49.35
2022-08-03T21:57:20.530Z,50.00
2022-08-03T21:59:55.616Z,57.63
2022-08-03T22:02:32.150Z,55.75
2022-08-03T22:05:04.988Z,60.95
2022-08-03T22:07:35.754Z,51.80
2022-08-03T22:10:07.965Z,61.78
2022-08-03T22:12:40.085Z,64.72
2022-08-03T22:15:13.282Z,69.22
2022-08-03T22:17:55.682Z,46.28
2022-08-03T22:20:26.572Z,57.88
2022-08-03T22:23:02.623Z,60.00
2022-08-03T22:25:35.191Z,52.63
2022-08-03T22:28:09.619Z,55.63
2022-08-03T22:30:41.933Z,49.22
2022-08-03T22:33:14.902Z,132.07
2022-08-03T22:35:47.714Z,45.50
2022-08-03T22:38:18.963Z,47.95
2022-08-03T22:40:51.238Z,60.00
2022-08-03T22:43:25.095Z,73.30
2022-08-03T22:46:11.196Z,46.63
2022-08-03T22:48:42.912Z,62.33
2022-08-03T22:51:12.606Z,89.85
2022-08-03T22:53:42.406Z,49.55
2022-08-03T22:56:12.410Z,61.72
2022-08-03T22:58:41.774Z,59.45
2022-08-03T23:01:14.860Z,42.03
2022-08-03T23:03:59.667Z,38.35
2022-08-03T23:06:36.737Z,40.10
2022-08-03T23:09:10.043Z,34.25
2022-08-03T23:11:42.990Z,42.65
2022-08-03T23:14:18.186Z,36.63
2022-08-03T23:16:50.147Z,35.00
2022-08-03T23:19:25.610Z,32.45
2022-08-03T23:22:00.408Z,79.32
2022-08-03T23:24:37.079Z,115.82
2022-08-03T23:27:08.592Z,56.10
2022-08-03T23:29:39.759Z,36.20
2022-08-03T23:32:14.276Z,92.35
2022-08-03T23:35:01.776Z,47.25
2022-08-03T23:37:33.583Z,37.72
2022-08-03T23:40:25.701Z,44.30
2022-08-03T23:42:59.076Z,65.20
2022-08-03T23:45:35.928Z,59.70
2022-08-03T23:48:07.498Z,47.95
2022-08-03T23:50:46.047Z,46.35
2022-08-03T23:53:22.903Z,55.20
2022-08-03T23:56:19.765Z,84.97
2022-08-03T23:59:08.093Z,65.45
